Date,TemperatureHighF,TemperatureAvgF,TemperatureLowF,DewpointHighF,DewpointAvgF,DewpointLowF,HumidityHigh,HumidityAvg,HumidityLow,PressureMaxIn,PressureMinIn,WindSpeedMaxMPH,WindSpeedAvgMPH,GustSpeedMaxMPH,PrecipitationSumIn
2013-1-1,48.2,46.1,41.7,47.7,43.3,23.8,98,91,47,30.12,29.91,2,0,4,0.89
2013-1-2,46.0,37.9,35.2,45.5,37.3,34.5,98,98,96,30.12,29.90,2,0,3,0.04
2013-1-3,42.4,33.7,27.1,36.7,32.0,25.3,98,93,75,30.33,30.10,1,0,3,0.00
2013-1-4,48.1,31.5,22.4,33.7,24.3,20.8,95,77,39,30.40,30.30,2,0,5,0.00
2013-1-5,51.3,36.0,22.9,35.3,24.5,19.8,92,67,30,30.38,30.25,2,0,4,0.04
2013-1-6,49.4,38.0,34.4,40.8,34.6,30.4,100,88,63,30.26,30.09,1,0,4,0.02
2013-1-7,52.0,37.5,25.1,32.8,27.4,23.6,96,70,37,30.37,30.21,9,2,13,0.00
2013-1-8,54.0,46.1,36.9,48.3,39.0,27.4,94,76,63,30.37,30.28,9,3,15,0.00
2013-1-9,60.4,55.5,49.7,54.4,51.3,47.6,96,86,73,30.39,30.30,4,1,6,0.00
2013-1-10,62.9,57.6,52.0,55.3,51.9,48.9,93,82,67,30.38,30.16,16,5,25,0.02
2013-1-11,61.8,58.3,54.8,60.3,57.3,53.0,98,97,93,30.16,30.04,14,4,19,0.36
2013-1-12,67.6,62.2,60.0,62.3,58.9,56.1,98,89,74,30.09,29.98,8,2,13,0.03
2013-1-13,63.8,61.6,59.9,59.2,57.5,55.2,97,87,80,30.02,29.93,10,4,13,0.30
2013-1-14,60.4,55.3,45.6,59.7,54.5,45.1,99,97,92,30.09,29.94,5,1,7,1.24
2013-1-15,59.7,56.2,46.1,59.4,55.9,45.6,99,99,97,30.05,29.89,6,2,9,0.99
2013-1-16,59.7,55.6,51.2,59.4,55.0,50.7,99,98,95,29.94,29.83,6,1,6,0.17
2013-1-17,51.3,43.6,30.1,51.0,43.1,29.4,99,98,91,30.19,29.58,9,0,13,1.48
2013-1-18,53.0,35.8,25.8,34.9,28.7,24.1,97,78,42,30.50,30.19,3,0,5,0.00
2013-1-19,55.0,40.2,31.0,30.9,26.6,21.5,78,60,33,30.45,30.20,4,1,9,0.00
2013-1-20,60.7,42.3,28.9,39.6,31.0,25.0,88,66,36,30.20,30.07,3,0,7,0.00
2013-1-21,53.3,37.3,27.4,36.3,25.5,14.7,95,66,35,30.12,30.02,3,0,5,0.00
2013-1-22,41.2,28.3,20.5,15.1,10.5,6.4,64,48,30,30.30,30.10,2,1,9,0.00
2013-1-23,52.3,34.4,25.2,29.6,19.1,7.5,80,54,39,30.36,30.15,3,0,5,0.00
2013-1-24,46.1,37.9,27.2,37.2,21.6,7.1,83,55,28,30.33,30.10,5,1,6,0.00
2013-1-25,38.7,31.1,24.2,37.9,23.6,7.1,97,76,44,30.34,30.13,9,4,15,0.21
2013-1-26,53.9,37.7,30.1,38.2,31.8,24.9,97,81,43,30.31,30.15,2,0,5,0.00
2013-1-27,48.7,38.7,28.5,33.4,30.0,24.7,87,72,52,30.45,30.29,8,3,11,0.00
2013-1-28,58.6,48.1,39.4,51.9,42.9,29.3,95,83,66,30.41,30.22,6,2,8,0.00
2013-1-29,62.0,56.0,43.8,59.0,53.4,42.2,97,91,83,30.24,29.92,9,3,13,0.14
2013-1-30,62.0,54.9,37.9,60.6,53.6,36.1,98,95,88,29.91,29.46,15,4,20,4.04
2013-1-31,45.6,35.1,27.8,35.6,26.4,21.6,94,72,45,30.10,29.62,3,1,6,0.01
2013-2-1,38.3,29.8,20.3,30.1,16.7,7.8,89,60,31,30.36,30.04,3,1,11,0.00
2013-2-2,35.4,26.8,17.9,31.4,20.7,7.9,100,79,41,30.36,30.12,3,0,7,0.04
2013-2-3,47.6,35.2,28.8,40.0,30.4,24.8,97,84,54,30.13,29.97,2,0,4,0.36
2013-2-4,46.9,34.6,25.0,31.6,24.9,21.2,92,70,42,30.14,30.00,7,0,9,0.00
2013-2-5,61.5,43.6,36.0,45.2,35.6,23.8,93,75,47,30.02,29.92,2,0,6,0.00
2013-2-6,65.3,46.4,31.7,39.9,32.8,26.2,98,66,27,30.17,30.01,2,0,5,0.01
2013-2-7,50.9,46.2,39.8,43.8,37.4,27.2,94,73,51,30.13,29.90,11,3,17,0.09
2013-2-8,56.3,42.9,30.1,47.7,40.1,28.0,98,91,58,30.14,29.86,1,0,3,0.04
2013-2-9,60.7,41.2,25.7,32.9,26.4,22.2,100,63,24,30.29,30.10,5,1,10,0.01
2013-2-10,50.5,46.5,43.1,47.8,33.0,22.2,97,62,35,30.27,30.05,14,7,22,0.61
2013-2-11,53.2,49.0,41.2,52.7,47.1,37.3,98,93,78,30.08,29.98,12,2,15,0.28
2013-2-12,49.9,41.9,35.0,41.8,36.6,31.0,100,82,52,30.08,29.83,10,0,12,0.11
2013-2-13,47.5,40.8,31.6,42.8,37.9,29.5,95,89,80,29.92,29.67,10,3,20,0.04
2013-2-14,57.1,40.1,31.4,37.5,31.2,25.4,93,73,40,30.05,29.91,3,0,5,0.00
2013-2-15,61.9,43.0,30.7,40.8,33.7,28.2,100,74,35,30.09,29.94,3,0,4,0.09
2013-2-16,37.7,29.5,21.5,31.8,23.0,13.2,100,78,46,30.08,29.90,3,1,5,0.01
2013-2-17,42.2,28.1,18.2,18.2,12.7,8.7,70,54,33,30.28,30.08,3,1,7,0.00
2013-2-18,51.9,38.1,23.4,27.7,21.5,12.4,77,53,35,30.35,30.11,14,4,19,0.00
2013-2-19,56.1,41.1,32.6,45.8,29.6,16.0,97,67,39,30.13,29.92,14,3,18,0.26
2013-2-20,50.5,34.3,23.8,20.8,14.4,8.5,72,46,21,30.17,30.08,2,0,5,0.00
2013-2-21,63.2,41.3,25.0,38.7,22.1,10.9,93,52,15,30.18,29.98,9,2,14,0.54
2013-2-22,47.3,42.8,39.4,44.9,39.8,36.0,96,89,83,30.14,29.97,13,5,19,0.36
2013-2-23,55.0,47.8,43.4,52.3,46.6,42.0,100,95,88,30.00,29.78,3,0,4,0.42
2013-2-24,64.2,45.4,32.3,43.1,33.7,25.3,100,69,28,29.99,29.85,3,0,5,0.00
2013-2-25,51.5,42.2,32.2,39.7,30.5,24.8,94,65,46,30.00,29.80,12,5,17,0.01
2013-2-26,44.6,42.4,36.1,42.6,39.8,33.7,95,91,80,29.80,29.51,15,5,24,0.93
2013-2-27,56.6,41.1,33.9,39.9,34.3,30.8,95,79,44,29.83,29.69,3,0,10,0.03
2013-2-28,37.6,32.5,29.8,33.2,26.8,24.0,86,79,74,29.96,29.77,2,0,4,0.00
2013-3-1,35.7,31.8,29.3,29.5,27.5,24.4,92,84,74,29.98,29.90,1,0,5,0.00
2013-3-2,37.3,30.5,26.0,31.4,26.6,19.2,95,86,70,29.99,29.89,2,0,9,0.02
2013-3-3,39.4,28.9,22.5,23.9,19.4,16.3,88,69,47,30.06,29.96,2,1,7,0.00
2013-3-4,55.1,37.1,20.2,31.6,22.6,15.6,84,59,32,30.17,30.02,4,1,6,0.00
2013-3-5,52.9,45.8,30.7,50.0,40.6,27.1,97,83,50,30.06,29.59,7,2,10,0.42
2013-3-6,30.6,27.7,24.7,27.5,24.6,20.9,93,88,78,30.19,29.76,4,2,9,0.01
2013-3-7,56.4,36.2,24.4,38.6,28.9,22.8,95,77,44,30.28,30.17,2,0,5,0.00
2013-3-8,64.2,40.3,23.1,34.5,25.7,20.5,95,64,20,30.32,30.20,2,0,6,0.00
2013-3-9,60.4,48.7,36.2,32.1,27.4,20.9,60,44,31,30.26,30.16,5,2,9,0.00
2013-3-10,60.5,54.0,48.3,41.8,33.4,28.3,61,46,35,30.18,30.02,14,7,22,0.00
2013-3-11,55.0,51.5,49.2,51.7,48.0,41.3,97,88,61,30.02,29.73,15,8,26,1.19
2013-3-12,58.2,43.9,33.5,50.0,37.0,30.0,100,79,44,30.05,29.76,2,0,7,0.05
2013-3-13,50.3,38.1,28.2,30.9,26.1,18.7,85,64,38,30.21,30.03,4,1,12,0.00
2013-3-14,53.2,35.1,20.0,24.2,18.3,14.1,84,54,24,30.32,30.20,3,0,8,0.00
2013-3-15,72.2,50.9,31.9,43.1,35.7,24.6,88,59,32,30.25,29.93,3,0,11,0.00
2013-3-16,77.5,61.8,50.9,49.3,43.7,40.0,70,52,36,29.93,29.76,3,1,15,0.00
2013-3-17,71.2,60.5,51.5,51.8,46.0,42.2,78,60,41,29.89,29.80,4,0,6,0.00
2013-3-18,54.8,49.7,45.6,50.2,47.0,44.0,100,91,74,29.89,29.75,12,4,20,0.50
2013-3-19,61.8,47.9,34.4,46.9,35.2,20.0,98,67,31,30.05,29.80,3,0,7,0.00
2013-3-20,59.0,41.9,32.5,30.3,20.6,16.4,84,45,21,30.08,29.83,3,1,7,0.00
2013-3-21,45.2,31.9,20.9,28.0,15.3,10.0,81,53,29,29.96,29.82,4,1,7,0.00
2013-3-22,46.1,35.8,26.2,30.2,20.4,12.1,68,54,37,30.04,29.95,1,0,4,0.00
2013-3-23,54.7,45.7,37.7,50.0,41.5,29.8,97,86,62,30.02,29.74,10,1,15,0.20
2013-3-24,52.1,46.2,36.2,48.5,44.2,32.1,97,93,84,29.81,29.43,13,3,16,1.21
2013-3-25,36.1,30.3,27.3,32.1,25.4,22.1,92,82,74,30.00,29.57,3,1,5,0.01
2013-3-26,38.8,30.0,26.0,30.6,25.1,22.6,90,82,63,30.24,29.98,2,1,5,0.00
2013-3-27,52.8,36.7,24.0,28.4,24.4,21.5,92,65,34,30.31,30.22,2,0,7,0.01
2013-3-28,60.2,41.8,27.0,31.0,24.8,20.4,80,54,26,30.30,30.20,3,0,7,0.00
2013-3-29,57.6,42.3,30.0,35.5,28.8,22.0,77,60,35,30.31,30.19,2,0,6,0.00
2013-3-30,68.4,52.1,40.6,50.6,40.5,34.3,96,69,34,30.19,29.97,4,1,9,0.28
2013-3-31,61.9,54.2,50.7,54.6,51.7,49.1,97,92,70,29.97,29.80,4,0,7,0.37
2013-4-1,66.7,53.5,42.5,52.1,45.0,36.6,99,76,46,29.97,29.80,2,0,5,0.01
2013-4-2,62.9,47.4,35.4,35.8,28.9,21.8,81,53,22,30.12,29.96,2,0,9,0.00
2013-4-3,59.1,49.2,38.2,33.6,29.2,24.7,63,47,32,30.15,30.06,8,1,11,0.00
2013-4-4,49.8,41.1,35.6,39.9,34.5,26.9,96,79,41,30.12,29.91,17,5,25,0.40
2013-4-5,66.6,49.2,39.6,48.0,39.4,32.5,98,74,30,30.05,29.91,3,0,7,0.01
2013-4-6,66.2,52.3,34.8,41.6,35.1,31.5,89,56,32,30.16,30.05,7,2,11,0.00
2013-4-7,68.1,60.2,48.8,47.2,42.2,33.1,62,52,41,30.14,30.02,7,3,14,0.00
2013-4-8,71.2,63.7,55.4,53.4,49.7,44.9,79,61,47,30.07,29.99,8,2,12,0.00
2013-4-9,79.8,67.4,54.3,57.8,53.5,49.9,88,62,41,30.11,29.99,7,2,15,0.00
2013-4-10,80.9,71.8,60.9,58.8,55.4,53.0,80,58,41,30.04,29.83,7,2,10,0.00
2013-4-11,72.2,66.2,59.0,63.6,57.1,53.0,96,73,55,29.84,29.56,11,4,18,0.84
2013-4-12,69.7,58.6,47.4,58.8,49.7,38.1,98,75,38,29.85,29.55,12,1,12,0.74
2013-4-13,76.7,58.1,42.3,43.4,38.1,34.3,85,52,25,29.98,29.85,2,0,6,0.00
2013-4-14,64.6,53.6,45.1,49.8,41.0,33.3,89,64,36,29.99,29.86,14,5,18,0.04
2013-4-15,73.7,60.9,52.7,58.4,53.6,49.7,96,79,53,30.09,29.88,9,3,14,0.00
2013-4-16,77.8,66.1,57.6,61.4,58.3,54.9,94,77,54,30.18,30.07,7,2,11,0.00
2013-4-17,82.5,67.3,59.0,65.1,60.1,57.7,98,79,49,30.13,29.97,6,1,11,1.75
2013-4-18,70.6,65.2,57.8,60.7,58.8,56.7,98,81,65,29.97,29.83,10,5,14,0.00
2013-4-19,66.3,56.8,40.7,61.8,53.4,35.3,100,89,80,29.94,29.66,13,3,18,0.90
2013-4-20,65.0,47.1,33.0,40.3,33.0,26.9,88,61,33,30.23,29.94,3,0,9,0.00
2013-4-21,63.4,50.3,35.7,37.5,33.1,28.0,84,54,34,30.31,30.21,11,4,19,0.00
2013-4-22,67.1,54.6,43.4,42.1,38.3,36.7,79,56,36,30.28,30.10,9,4,13,0.00
2013-4-23,71.0,57.6,43.5,47.1,38.9,28.9,69,51,35,30.17,30.02,5,2,9,0.00
2013-4-24,67.9,59.2,48.6,58.5,52.3,46.8,95,79,63,30.07,29.97,6,1,12,0.10
2013-4-25,73.1,52.8,40.6,49.2,39.3,28.8,96,67,23,30.27,30.07,2,0,5,0.00
2013-4-26,69.7,53.9,35.0,48.6,35.7,26.7,86,53,29,30.35,30.23,7,2,12,0.04
2013-4-27,55.9,51.8,48.1,49.8,48.0,44.7,97,87,69,30.31,30.11,11,3,15,0.52
2013-4-28,54.5,52.0,49.2,54.0,51.0,48.2,100,96,85,30.14,29.95,9,2,13,1.60
2013-4-29,77.3,60.5,51.0,59.3,52.6,48.1,99,79,42,29.99,29.86,2,0,5,0.02
2013-4-30,74.8,61.3,47.5,57.0,52.2,46.1,96,74,47,30.05,29.90,6,1,10,0.00
2013-5-1,69.2,62.0,55.8,56.2,53.2,50.6,87,74,58,30.12,30.03,8,4,14,0.00
2013-5-2,64.8,59.4,56.2,56.0,53.1,49.9,88,80,69,30.13,30.06,10,6,18,0.00
2013-5-3,60.4,56.1,53.7,53.5,51.3,47.7,91,84,65,30.08,29.92,15,8,25,0.00
2013-5-4,55.9,51.5,48.3,50.2,47.6,42.2,94,87,74,29.92,29.79,15,8,25,1.33
2013-5-5,54.1,51.0,46.2,52.4,49.2,45.2,97,93,88,29.79,29.67,14,4,22,1.11
2013-5-6,53.0,46.1,40.4,46.9,43.9,39.6,98,92,76,29.88,29.72,4,1,9,0.12
2013-5-7,69.8,55.0,44.6,54.7,48.9,43.8,98,82,50,29.91,29.83,1,0,4,0.01
2013-5-8,73.6,58.6,48.6,60.0,53.3,47.6,98,84,55,30.01,29.88,1,0,2,0.00
2013-5-9,83.1,64.6,48.9,62.8,54.5,48.1,98,74,39,30.06,29.96,1,0,6,0.01
2013-5-10,73.1,63.5,53.7,61.9,56.0,52.0,96,78,54,30.04,29.88,4,0,10,0.06
2013-5-11,74.6,61.2,56.3,63.9,58.5,55.5,98,92,60,29.91,29.80,1,0,4,0.32
2013-5-12,67.4,54.7,45.3,55.4,44.9,32.6,99,73,37,30.04,29.86,1,0,4,0.00
2013-5-13,68.4,52.1,38.1,42.2,36.0,31.6,85,57,32,30.16,30.03,2,0,7,0.00
2013-5-14,80.6,59.2,38.1,55.3,44.7,33.5,87,61,37,30.21,30.05,2,0,6,0.00
2013-5-15,89.5,71.0,58.0,60.4,55.2,52.0,83,61,29,30.09,29.92,1,0,3,0.00
2013-5-16,84.1,67.6,56.3,63.0,57.6,53.3,92,72,44,29.99,29.90,1,0,5,0.00
2013-5-17,76.5,66.3,57.3,63.0,57.8,52.9,93,75,52,30.02,29.95,5,1,10,0.00
2013-5-18,67.4,63.0,60.0,64.7,61.3,58.5,98,94,83,30.01,29.95,4,1,12,0.31
2013-5-19,69.2,63.3,57.8,66.6,62.4,57.2,99,97,89,30.02,29.90,3,0,3,0.91
2013-5-20,85.6,68.5,55.9,71.1,63.5,55.3,99,86,52,30.05,29.93,5,0,6,0.01
2013-5-21,87.0,72.2,62.8,71.2,65.9,61.0,99,82,45,29.97,29.82,4,0,11,0.00
2013-5-22,81.9,68.7,60.9,69.6,63.6,60.0,98,85,57,29.92,29.76,3,0,7,0.22
2013-5-23,81.5,68.2,60.8,66.7,61.2,54.5,99,80,50,29.89,29.82,1,0,4,0.00
2013-5-24,74.1,61.9,50.8,54.9,48.5,36.5,92,65,30,30.16,29.88,3,0,4,0.00
2013-5-25,81.6,59.2,40.1,51.1,41.2,28.0,93,57,23,30.27,30.14,1,0,4,0.00
2013-5-26,81.4,62.5,47.3,57.2,47.7,38.1,86,60,37,30.22,30.10,1,0,4,0.00
2013-5-27,79.6,66.9,54.1,59.8,54.4,47.2,84,66,44,30.16,30.05,5,1,10,0.00
2013-5-28,81.2,70.6,62.9,65.1,59.3,56.0,83,69,45,30.12,30.04,5,1,10,0.00
2013-5-29,79.6,69.9,60.3,64.7,60.5,57.4,90,74,49,30.13,30.04,6,2,11,0.00
2013-5-30,78.0,69.7,64.3,64.1,61.5,59.1,90,76,55,30.17,30.05,6,2,9,0.00
2013-5-31,78.7,70.5,65.3,66.1,62.9,60.9,88,77,61,30.13,30.01,5,2,11,0.00
2013-6-1,77.5,70.4,65.0,67.2,64.4,61.4,97,82,69,30.03,29.92,6,2,10,0.32
2013-6-2,74.0,67.9,64.7,70.9,66.6,64.1,99,96,86,29.92,29.80,2,0,6,1.09
2013-6-3,81.2,68.8,61.6,71.7,64.9,59.9,99,88,57,29.90,29.79,0,0,1,0.01
2013-6-4,83.9,69.3,55.3,68.5,61.9,54.5,99,80,48,29.95,29.88,1,0,3,0.01
2013-6-5,79.7,70.2,61.4,69.8,65.1,60.5,98,85,67,29.95,29.82,5,1,10,1.99
2013-6-6,76.6,67.6,61.0,69.8,64.9,60.4,98,91,71,29.84,29.69,3,0,5,0.01
2013-6-7,85.5,69.3,62.7,72.0,65.6,61.8,98,89,56,29.77,29.60,1,0,3,0.46
2013-6-8,81.2,68.7,60.2,69.9,63.7,59.6,99,85,59,30.02,29.76,1,0,2,0.00
2013-6-9,79.3,70.0,63.4,70.6,66.2,61.1,98,89,69,30.02,29.92,4,1,8,0.30
2013-6-10,78.7,68.6,62.7,70.2,64.9,61.7,98,89,61,29.94,29.85,2,0,6,0.48
2013-6-11,87.3,73.7,66.1,75.8,69.1,64.4,99,87,60,29.95,29.88,0,0,3,0.08
2013-6-12,89.1,75.5,64.8,80.0,70.4,64.2,99,85,58,29.97,29.88,0,0,1,0.00
2013-6-13,89.0,74.7,65.9,75.9,69.7,65.3,98,86,56,29.89,29.63,1,0,3,0.33
2013-6-14,83.6,69.5,56.7,66.3,60.4,55.9,99,76,43,29.94,29.74,0,0,3,0.01
2013-6-15,82.9,69.8,59.0,65.8,58.9,52.8,90,69,48,30.05,29.95,2,0,4,0.00
2013-6-16,83.4,71.2,58.8,69.0,62.7,56.4,96,76,53,30.08,29.93,1,0,3,0.17
2013-6-17,80.5,70.0,64.8,73.7,67.1,63.9,99,91,69,29.98,29.86,1,0,2,0.19
2013-6-18,80.9,70.1,66.1,74.3,67.8,64.6,98,93,73,29.86,29.75,0,0,1,0.07
2013-6-19,81.8,71.0,64.1,72.8,67.0,63.5,99,88,59,29.94,29.82,1,0,2,0.01
2013-6-21,78.5,66.8,61.9,66.9,63.5,61.0,98,90,65,30.14,30.09,0,0,0,0.23
2013-6-22,81.4,68.3,57.0,67.8,61.9,56.4,100,82,53,30.17,30.04,1,0,2,0.01
2013-6-23,80.8,69.8,59.0,70.3,64.3,57.6,98,84,62,30.13,30.02,2,0,6,0.00
2013-6-24,83.1,73.0,64.2,74.2,68.2,63.6,99,86,63,30.14,30.00,0,0,4,0.47
2013-6-25,82.1,70.6,62.6,73.4,67.0,61.7,98,89,70,30.09,29.95,0,0,1,0.01
2013-6-26,88.5,71.9,64.7,75.6,68.8,64.0,99,91,59,29.99,29.85,1,0,4,0.38
2013-6-27,85.5,74.2,67.0,77.6,71.0,66.1,97,90,73,29.91,29.71,0,0,4,0.08
2013-6-28,89.5,73.6,64.7,77.3,69.3,64.1,99,88,57,29.76,29.57,1,0,3,0.38
2013-6-29,84.6,71.6,62.4,72.6,65.4,59.9,99,83,50,29.65,29.57,0,0,2,0.00
2013-6-30,84.0,70.1,58.6,69.9,63.2,57.5,98,81,47,29.73,29.62,1,0,3,0.00
2013-7-1,78.9,67.4,61.4,68.7,64.6,60.7,99,91,65,29.85,29.70,1,0,3,0.33
2013-7-2,79.4,70.6,64.2,69.6,65.9,62.4,97,86,61,30.02,29.84,2,0,4,0.02
2013-7-3,69.2,65.6,62.9,67.9,64.6,62.3,99,97,91,30.11,29.98,1,0,2,2.15
2013-7-4,72.4,66.5,63.0,70.3,65.8,62.6,99,98,91,30.11,30.04,1,0,9,0.28
2013-7-5,75.1,67.9,64.9,70.0,66.3,64.3,99,95,78,30.15,30.05,1,0,3,0.18
2013-7-6,75.9,69.5,65.3,72.2,67.8,64.7,99,94,81,30.11,30.01,4,1,11,0.84
2013-7-7,77.1,70.0,66.6,71.2,68.2,66.2,99,94,77,30.10,30.02,1,0,4,0.04
2013-7-8,87.7,73.4,65.7,76.3,69.5,65.1,99,89,62,30.12,30.02,2,0,3,0.00
2013-7-9,89.1,73.5,66.1,78.6,70.5,65.5,99,91,61,30.08,29.97,1,0,2,0.10
2013-7-10,89.0,73.9,66.9,78.6,70.5,66.3,99,90,64,30.04,29.86,1,0,2,0.00
2013-7-11,82.9,72.6,67.5,75.0,70.1,66.9,99,92,74,29.89,29.78,0,0,3,0.00
2013-7-12,90.8,74.1,65.4,77.3,69.4,63.1,99,87,51,29.88,29.78,3,0,4,0.00
2013-7-13,75.1,69.5,64.0,68.4,65.1,62.3,97,86,75,30.00,29.86,5,2,11,0.00
2013-7-14,74.3,70.1,67.5,70.9,67.6,65.2,97,92,83,30.16,29.98,6,2,9,0.20
2013-7-15,82.0,72.5,66.3,73.7,67.7,64.5,97,85,67,30.23,30.14,4,1,7,0.02
2013-7-16,86.3,76.0,66.1,74.8,69.3,64.6,97,81,57,30.24,30.14,2,0,4,0.00
2013-7-17,91.8,75.4,64.5,78.8,70.3,63.9,99,86,52,30.21,30.05,3,0,2,0.49
2013-7-18,84.3,72.8,64.4,76.9,68.9,63.8,99,89,68,30.15,29.99,3,0,9,0.06
2013-7-19,88.2,75.7,64.9,76.3,70.2,64.0,98,85,58,30.05,29.91,1,0,2,0.00
2013-7-20,85.9,72.4,66.0,75.9,69.5,65.4,99,91,67,29.96,29.85,2,0,4,0.00
2013-7-21,90.3,73.2,65.9,76.3,69.8,65.3,99,90,58,29.95,29.83,3,0,3,0.28
2013-7-22,83.7,71.8,65.4,75.2,69.1,64.8,99,92,66,29.92,29.78,1,0,4,0.02
2013-7-23,83.5,73.0,65.4,75.4,69.5,64.8,99,89,72,29.86,29.74,0,0,1,0.00
2013-7-24,90.5,74.7,67.3,77.6,70.1,63.9,98,87,55,29.79,29.71,1,0,1,0.00
2013-7-25,88.1,71.4,64.0,74.8,66.4,63.2,99,86,53,29.94,29.77,2,0,3,0.00
2013-7-26,79.8,69.1,61.7,70.9,65.5,60.8,98,89,70,29.99,29.90,4,1,11,0.04
2013-7-27,81.8,71.1,64.3,72.1,67.3,63.4,98,89,64,29.94,29.80,1,0,2,0.00
2013-7-28,86.0,71.2,61.6,72.6,66.1,61.0,99,86,56,29.98,29.84,0,0,1,0.00
2013-7-29,86.1,68.0,58.4,68.4,61.2,56.8,100,82,43,30.12,29.96,0,0,1,0.00
2013-7-30,87.1,70.1,55.2,69.2,61.5,54.1,100,78,39,30.15,30.05,1,0,2,0.00
2013-7-31,74.0,70.5,67.4,70.8,67.7,64.7,98,91,84,30.07,29.88,1,0,3,0.06
2013-8-1,89.2,73.9,65.6,76.6,69.2,64.3,98,87,60,29.92,29.82,0,0,2,0.00
2013-8-2,85.6,72.4,61.7,73.8,66.6,60.8,99,84,56,29.96,29.86,1,0,2,0.00
2013-8-3,86.3,72.3,62.2,73.0,67.2,61.3,99,85,56,29.98,29.91,0,0,1,0.00
2013-8-4,87.1,74.1,64.5,75.1,68.4,59.4,99,84,62,29.97,29.88,0,0,2,0.00
2013-8-5,84.0,70.5,59.8,73.0,64.6,58.6,98,83,54,29.99,29.90,1,0,3,0.00
2013-8-6,82.8,73.4,65.6,74.0,68.1,62.7,97,84,64,29.94,29.88,1,0,6,0.00
2013-8-7,76.8,71.3,67.5,73.1,69.8,66.9,99,95,84,29.96,29.90,2,0,4,0.24
2013-8-8,80.6,71.9,69.3,73.3,69.6,67.9,97,92,76,29.98,29.91,2,0,4,0.00
2013-8-9,83.6,74.6,69.0,76.2,71.3,67.4,97,90,73,30.02,29.93,2,0,3,0.00
2013-8-10,85.4,73.8,67.9,79.1,71.1,66.7,100,92,71,30.06,29.97,3,0,3,0.12
2013-8-11,88.5,74.7,65.6,79.0,70.7,65.0,99,88,65,30.08,29.98,0,0,2,0.06
2013-8-12,85.5,72.9,66.1,76.7,70.2,65.5,99,92,66,30.03,29.90,1,0,1,0.03
2013-8-13,85.3,73.6,68.0,77.3,70.8,66.8,99,92,70,29.93,29.78,0,0,2,0.04
2013-8-14,83.1,71.0,63.2,72.6,67.1,62.0,99,89,59,29.95,29.81,4,0,5,0.18
2013-8-15,72.6,65.0,60.8,63.7,58.9,54.5,97,81,68,30.01,29.93,5,2,11,0.00
2013-8-16,69.3,62.9,59.0,62.9,58.0,54.9,96,84,73,30.06,29.96,4,1,10,0.05
2013-8-17,66.0,62.9,60.2,62.6,59.8,57.1,100,90,80,30.08,30.01,4,1,6,0.35
2013-8-18,73.0,65.1,61.0,67.9,63.8,60.4,99,96,81,30.14,30.04,2,0,4,0.18
2013-8-19,75.9,67.8,63.1,70.8,66.0,62.5,99,94,81,30.11,29.99,3,0,7,0.12
2013-8-20,77.4,69.4,63.2,71.2,66.5,62.6,99,91,77,30.12,30.02,2,0,6,0.01
2013-8-21,72.9,67.9,65.8,70.1,66.7,65.2,99,96,89,30.17,30.06,1,0,2,0.05
2013-8-22,83.9,71.1,64.4,76.1,68.6,63.8,100,92,69,30.12,29.97,3,0,3,0.06
2013-8-23,87.3,74.9,64.4,76.9,70.0,63.8,99,86,65,30.02,29.90,1,0,3,0.01
2013-8-24,79.3,70.4,62.4,70.9,65.7,60.0,98,86,70,30.19,29.97,4,1,7,0.01
2013-8-25,78.1,68.3,60.4,66.7,60.3,54.3,87,76,61,30.28,30.17,3,1,7,0.00
2013-8-26,81.6,67.6,56.5,69.7,62.3,55.5,98,84,56,30.25,30.07,1,0,3,0.00
2013-8-27,85.4,70.0,57.6,73.7,65.2,56.8,99,86,58,30.10,29.96,1,0,2,0.00
2013-8-28,90.5,73.3,61.7,76.5,68.2,61.1,99,86,60,30.00,29.89,0,0,3,0.00
2013-8-29,92.9,76.4,66.2,78.7,71.0,65.3,99,85,59,29.94,29.84,0,0,2,0.00
2013-8-30,84.9,74.4,66.4,74.5,70.4,65.5,99,88,68,29.93,29.84,3,0,6,0.00
2013-8-31,92.5,74.5,66.9,77.0,70.4,66.0,99,88,57,29.89,29.78,1,0,2,0.02
2013-9-1,86.0,72.5,66.7,76.6,69.7,65.6,99,91,67,29.85,29.75,0,0,1,0.14
2013-9-2,81.3,71.1,64.4,74.5,68.7,63.8,99,92,75,29.89,29.78,0,0,1,0.01
2013-9-3,87.8,73.0,65.0,77.0,68.9,64.4,99,88,59,29.91,29.79,0,0,2,0.37
2013-9-4,86.3,71.2,60.5,72.9,66.2,59.9,99,86,58,30.03,29.91,1,0,3,0.01
2013-9-5,86.7,71.4,60.0,72.3,65.9,59.4,99,85,53,30.06,29.99,1,0,2,0.00
2013-9-6,82.5,70.2,59.8,67.9,64.1,59.2,99,83,56,30.08,29.99,4,0,10,0.01
2013-9-7,85.5,70.9,60.0,70.2,64.6,59.1,98,82,54,30.05,29.92,2,0,1,0.16
2013-9-8,85.2,70.9,59.8,72.0,65.7,58.9,98,85,60,29.96,29.87,1,0,3,0.00
2013-9-9,82.5,71.7,62.8,71.3,65.7,61.6,98,83,61,30.06,29.93,4,1,8,0.00
2013-9-10,83.6,72.6,63.2,70.3,66.1,61.5,97,82,57,30.15,30.05,4,1,7,0.00
2013-9-11,87.2,72.2,61.1,72.1,66.5,60.2,98,84,54,30.16,30.03,2,0,4,0.00
2013-9-12,81.8,69.6,62.5,73.2,67.0,61.6,99,92,73,30.04,29.84,1,0,3,0.03
2013-9-13,80.0,68.2,56.8,66.8,62.2,52.3,99,83,50,29.85,29.75,2,0,2,0.00
2013-9-14,74.3,60.9,48.5,59.1,53.5,47.6,98,79,50,30.04,29.83,3,0,6,0.00
2013-9-15,76.9,66.5,58.2,64.0,59.5,54.8,94,79,57,30.11,30.03,5,1,10,0.00
2013-9-16,83.4,69.0,60.1,67.6,61.3,56.0,98,79,40,30.09,30.01,1,0,3,0.00
2013-9-17,71.8,65.3,60.6,60.0,57.9,54.8,91,78,63,30.15,30.05,7,2,13,0.00
2013-9-18,70.1,63.5,59.5,61.9,57.1,52.7,95,80,72,30.17,30.08,4,1,10,0.00
2013-9-19,81.7,67.0,55.7,67.4,61.2,54.9,98,83,57,30.14,30.00,2,0,5,0.00
2013-9-20,80.9,69.1,59.0,67.6,62.7,58.2,98,81,59,30.03,29.85,2,0,5,0.00
2013-9-21,68.6,64.5,59.0,64.5,62.8,58.4,98,94,84,29.87,29.62,3,1,7,1.24
2013-9-22,75.4,61.5,53.7,64.5,57.2,53.1,99,87,54,29.85,29.70,2,0,5,0.01
2013-9-23,72.7,62.2,54.2,60.4,56.3,53.4,98,82,58,29.98,29.84,5,1,11,0.00
2013-9-24,68.2,62.4,56.1,62.4,58.8,54.2,94,88,80,29.98,29.85,4,1,9,0.00
2013-9-25,64.8,61.4,59.0,62.6,59.8,58.2,98,95,88,29.84,29.77,5,1,10,2.41
2013-9-26,76.7,64.8,58.2,68.5,61.3,57.6,100,89,66,29.95,29.81,2,0,5,0.00
2013-9-27,77.3,63.7,52.6,63.6,57.2,51.2,96,81,49,30.08,29.95,2,0,4,0.00
2013-9-28,71.9,62.0,54.3,59.7,55.5,51.9,92,80,60,30.15,30.04,5,1,7,0.00
2013-9-29,68.1,59.5,51.7,57.8,53.6,49.0,94,82,64,30.09,29.98,3,0,8,0.00
2013-9-30,71.1,60.0,50.9,59.6,55.1,50.1,98,85,59,30.04,29.94,4,0,10,0.00
2013-10-1,78.5,61.9,51.9,63.0,56.5,51.1,98,85,54,30.12,30.01,2,0,5,0.00
2013-10-2,80.4,64.9,53.0,66.2,59.5,52.2,98,84,52,30.12,30.00,2,0,5,0.01
2013-10-3,78.2,66.4,59.0,66.0,60.4,57.9,97,83,56,30.08,29.99,2,0,6,0.00
2013-10-4,81.4,67.1,55.9,67.0,61.1,55.1,98,83,53,30.11,30.02,2,0,4,0.00
2013-10-5,80.8,68.3,58.5,67.1,61.8,57.7,98,82,52,30.07,29.95,4,0,8,0.00
2013-10-6,77.1,67.8,62.7,65.8,62.5,60.0,98,84,66,29.97,29.78,7,2,14,0.41
2013-10-7,69.2,58.2,51.2,62.6,56.2,49.8,98,93,71,29.95,29.74,1,0,4,0.61
2013-10-8,72.2,58.0,46.9,59.5,52.1,46.2,100,83,59,30.09,29.95,7,1,15,0.01
2013-10-9,78.2,61.4,49.0,63.9,54.3,45.9,95,79,58,30.13,30.02,2,0,4,0.00
2013-10-10,74.4,58.9,47.7,59.7,53.4,46.9,99,84,52,30.07,29.97,2,0,9,0.00
2013-10-11,78.7,60.2,48.4,62.0,54.2,47.6,98,83,44,30.02,29.92,1,0,4,0.01
2013-10-12,77.6,60.5,49.6,62.6,55.4,48.8,98,85,56,30.06,29.95,1,0,3,0.01
2013-10-13,75.4,61.4,51.3,62.9,57.3,50.5,98,87,63,30.15,30.05,2,0,4,0.00
2013-10-14,71.7,62.3,56.1,62.6,58.9,55.3,99,89,69,30.14,30.04,3,0,9,0.01
2013-10-15,65.9,60.0,55.2,58.8,56.4,53.6,97,88,75,30.09,29.98,4,1,9,0.00
2013-10-16,70.0,60.1,55.2,60.6,56.8,53.5,97,89,69,30.01,29.90,1,0,4,0.01
2013-10-17,68.2,60.9,56.5,66.1,59.8,55.4,98,96,88,29.92,29.81,2,0,5,0.23
2013-10-18,68.7,56.0,49.2,59.0,52.5,48.4,98,89,67,29.97,29.87,2,0,5,0.00
2013-10-19,63.5,53.7,48.1,54.6,50.7,46.5,100,90,65,29.93,29.85,1,0,2,0.01
2013-10-20,67.1,50.1,39.9,49.7,42.6,38.9,97,79,38,30.04,29.93,2,0,5,0.00
2013-10-21,66.2,53.8,43.7,52.5,47.6,41.1,96,81,55,30.09,29.97,5,1,11,0.00
2013-10-22,69.3,56.2,50.0,56.0,50.8,47.5,98,84,52,30.00,29.78,2,0,4,0.01
2013-10-23,52.7,46.1,34.4,48.3,39.6,31.1,95,79,54,30.05,29.75,4,1,9,0.01
2013-10-24,59.1,42.3,30.4,41.5,35.4,29.1,97,79,48,30.19,30.03,2,0,4,0.00
2013-10-25,55.8,39.8,26.9,37.6,27.8,21.2,92,66,29,30.36,30.19,3,0,7,0.00
2013-10-26,62.6,43.6,29.8,36.7,30.4,26.3,88,63,32,30.33,30.14,3,0,0,0.00
2013-10-27,60.0,51.8,43.1,52.0,44.0,31.2,92,75,59,30.14,30.07,1,0,0,0.00
2013-10-28,59.3,55.0,51.0,53.8,51.7,49.2,97,89,76,30.24,30.10,0,0,1,0.07
2013-10-29,67.9,55.0,47.0,55.6,51.0,46.2,99,88,61,30.30,30.20,1,0,4,0.01
2013-10-30,75.3,63.5,55.1,59.3,55.7,52.8,94,77,52,30.25,30.08,1,0,6,0.00
2013-10-31,65.6,61.3,59.0,60.3,56.0,51.1,96,83,73,30.11,29.73,11,2,14,0.03
2013-11-1,75.0,64.4,57.8,61.0,56.0,45.3,98,79,36,29.77,29.62,8,1,12,0.14
2013-11-2,63.7,50.2,42.4,48.5,41.7,35.7,94,74,45,30.00,29.72,3,0,5,0.02
2013-11-3,63.1,46.9,36.7,41.8,37.3,35.1,96,72,38,30.29,29.98,2,0,5,0.00
2013-11-4,56.0,48.3,43.5,38.6,35.1,32.4,74,61,49,30.39,30.28,12,4,17,0.00
2013-11-5,64.3,51.0,39.9,40.0,35.2,31.5,76,56,38,30.41,30.30,6,2,12,0.00
2013-11-6,64.0,57.6,49.9,54.7,52.6,37.2,95,84,61,30.32,30.05,9,4,16,0.00
2013-11-7,59.0,50.7,34.6,55.8,46.6,31.4,97,86,64,30.15,29.96,4,1,10,0.22
2013-11-8,59.6,44.0,34.4,31.6,25.4,17.6,88,52,21,30.31,30.14,3,1,10,0.00
2013-11-9,56.6,46.3,38.5,34.1,29.2,25.5,68,52,34,30.30,30.19,6,1,11,0.00
2013-11-10,70.2,50.7,37.7,43.5,34.3,30.2,80,56,29,30.27,30.16,2,0,4,0.00
2013-11-11,65.9,49.4,33.8,35.8,31.2,27.4,85,53,26,30.26,30.13,3,0,7,0.00
2013-11-12,54.1,39.0,23.6,40.6,28.5,13.8,80,66,52,30.41,30.10,4,1,13,0.00
2013-11-13,48.9,33.0,17.0,21.3,16.4,13.3,86,54,28,30.58,30.41,2,0,5,0.00
2013-11-14,27.9,26.0,23.8,17.2,15.4,14.1,73,64,56,30.48,30.45,0,0,2,0.00
2013-11-15,50.6,47.2,39.6,49.8,39.4,16.0,97,78,36,30.31,30.11,8,1,0,0.17
2013-11-16,58.8,54.5,49.8,54.5,52.2,49.1,98,92,85,30.19,30.09,9,2,15,0.00
2013-11-17,62.4,58.5,56.2,61.8,56.6,53.1,98,94,87,30.12,29.85,9,4,16,0.30
2013-11-18,62.5,57.5,54.6,61.9,56.7,53.7,98,97,95,29.88,29.82,5,0,6,0.09
2013-11-19,57.8,43.8,33.4,34.3,30.0,24.9,81,59,35,30.16,29.97,6,1,14,0.00
2013-11-20,52.6,44.2,37.6,33.4,28.2,23.2,65,53,39,30.32,30.14,14,7,21,0.00
2013-11-21,58.9,51.6,44.5,52.9,47.0,33.2,96,85,64,30.35,30.26,10,3,19,0.02
2013-11-22,62.1,57.1,52.7,59.1,55.5,51.6,98,95,90,30.29,30.10,3,1,10,0.12
2013-11-23,54.9,44.2,30.8,54.3,41.9,25.9,98,92,78,30.22,30.06,3,0,4,0.07
2013-11-24,45.4,31.1,21.0,24.8,16.4,10.4,80,56,28,30.47,30.20,3,1,8,0.00
2013-11-25,42.3,34.3,26.0,33.6,15.9,4.6,95,49,21,30.46,30.19,7,4,14,0.09
2013-11-26,45.1,42.7,35.0,44.6,42.0,33.7,98,97,94,30.19,29.65,9,2,15,3.68
2013-11-27,38.2,28.2,19.9,37.7,25.8,16.1,98,91,81,30.23,29.64,4,2,7,0.11
2013-11-28,48.8,29.3,15.2,28.6,18.7,13.3,98,69,29,30.49,30.23,2,0,5,0.00
2013-11-29,56.9,38.4,24.6,34.7,25.1,18.7,82,61,37,30.55,30.43,6,1,11,0.00
2013-11-30,50.2,40.5,32.1,27.2,24.6,22.6,70,54,37,30.50,30.30,9,3,18,0.00
2013-12-1,55.6,43.5,36.3,40.4,32.1,26.3,80,65,40,30.30,29.99,1,0,4,0.00
2013-12-2,46.7,42.6,37.2,45.6,40.2,31.5,97,91,72,29.99,29.79,1,0,2,0.10
2013-12-3,52.9,49.9,46.5,50.6,48.3,45.7,100,94,90,29.88,29.79,5,1,11,0.04
2013-12-4,62.9,57.7,52.5,58.0,54.9,50.2,96,91,82,29.99,29.86,6,2,13,0.00
2013-12-5,67.8,62.3,58.7,63.2,60.8,57.7,99,95,83,30.01,29.91,3,1,5,0.71
2013-12-6,68.5,63.3,50.8,63.7,61.0,49.7,98,92,81,29.98,29.86,5,2,14,0.53
2013-12-7,51.2,41.8,37.3,50.7,41.1,36.8,99,97,94,30.27,29.95,11,0,18,0.01
2013-12-8,50.2,44.0,41.0,49.7,42.4,39.2,98,94,90,30.24,30.10,11,6,26,0.54
2013-12-9,52.9,50.2,47.4,52.4,49.6,46.9,99,98,94,30.11,29.95,7,2,13,0.79
2013-12-10,51.6,38.9,25.4,51.2,36.2,22.1,99,90,68,30.30,29.87,4,1,10,0.36
2013-12-11,51.7,32.5,21.1,31.8,23.3,18.7,95,73,34,30.46,30.30,3,0,5,0.00
2013-12-12,43.6,31.1,22.8,27.1,19.8,11.1,92,65,35,30.43,30.34,2,0,7,0.00
2013-12-13,51.8,35.9,21.2,27.1,19.6,13.4,78,54,31,30.41,30.18,10,1,15,0.00
2013-12-14,51.4,46.7,41.8,49.7,42.0,25.1,100,85,48,30.19,29.75,10,3,16,0.61
2013-12-15,48.3,32.9,26.3,46.8,31.2,24.3,97,93,90,30.18,29.76,3,1,5,0.03
2013-12-16,53.6,35.3,21.7,36.4,27.9,20.5,97,77,44,30.27,30.17,1,0,6,0.00
2013-12-17,58.4,42.5,29.7,38.4,32.2,24.9,91,69,41,30.21,30.03,5,1,6,0.00
2013-12-18,51.4,37.0,26.3,25.1,18.4,12.0,78,50,23,30.30,30.13,3,1,11,0.00
2013-12-19,63.4,45.8,31.7,34.6,23.0,13.9,63,43,23,30.32,30.17,5,1,12,0.00
2013-12-20,61.3,52.7,46.0,51.7,38.8,26.2,87,61,34,30.18,30.07,7,3,12,0.00
2013-12-21,64.5,59.5,54.9,61.9,57.6,51.3,98,93,87,30.08,29.87,10,5,20,0.35
2013-12-22,65.4,56.9,50.4,62.0,55.7,49.9,98,96,87,30.02,29.82,9,2,19,3.82
2013-12-23,50.4,43.5,31.0,49.9,42.3,29.6,100,96,83,30.22,29.96,2,0,5,0.07
2013-12-24,34.4,28.6,20.4,29.6,23.8,17.1,95,83,61,30.41,30.21,4,1,7,0.00
2013-12-25,40.6,28.6,17.8,25.7,19.1,15.6,93,70,42,30.48,30.35,5,1,10,0.00
2013-12-26,51.0,34.6,24.1,32.9,25.6,22.0,95,72,41,30.39,30.27,2,0,4,0.00
2013-12-27,54.0,36.7,25.4,30.9,24.8,21.9,92,65,31,30.45,30.33,2,0,5,0.00
2013-12-28,47.0,36.8,29.0,42.7,31.2,23.5,96,81,40,30.40,29.93,13,1,14,0.69
2013-12-29,46.9,43.2,37.3,45.2,41.7,36.0,98,94,87,30.01,29.81,13,2,20,0.22
2013-12-30,42.9,38.9,33.7,39.1,36.8,32.7,100,92,84,30.17,29.99,1,0,4,0.01
2013-12-31,42.8,33.3,28.3,32.8,27.2,22.8,96,80,49,30.38,30.14,2,0,6,0.00
2014-1-1,44.7,38.1,27.6,32.6,26.2,21.5,85,63,50,30.35,30.11,6,1,12,0.00
2014-1-2,46.4,37.5,16.8,45.6,35.0,14.1,97,91,76,30.11,29.71,7,2,9,0.20